createdAt,value
2023-03-31T00:03:25.608Z,26.45
2023-03-31T00:08:30.476Z,30.67
2023-03-31T00:13:32.312Z,23.73
2023-03-31T00:18:34.683Z,25.05
2023-03-31T00:23:36.406Z,30.85
2023-03-31T00:28:37.781Z,18.90
2023-03-31T00:33:39.179Z,23.75
2023-03-31T00:38:40.556Z,22.50
2023-03-31T00:43:43.990Z,22.50
2023-03-31T00:48:49.131Z,29.98
2023-03-31T00:53:55.414Z,20.58
2023-03-31T00:58:59.826Z,32.30
2023-03-31T01:04:02.371Z,23.40
2023-03-31T01:09:06.947Z,23.77
2023-03-31T01:14:09.761Z,31.15
2023-03-31T01:19:16.201Z,22.80
2023-03-31T01:24:32.015Z,21.25
2023-03-31T01:29:33.430Z,19.42
2023-03-31T01:34:53.782Z,24.48
2023-03-31T01:39:56.618Z,18.05
2023-03-31T01:45:16.659Z,14.93
2023-03-31T01:50:38.330Z,13.85
2023-03-31T01:55:42.666Z,19.48
2023-03-31T02:00:51.977Z,15.63
2023-03-31T02:05:55.340Z,24.13
2023-03-31T02:10:57.669Z,14.20
2023-03-31T02:16:02.477Z,19.80
2023-03-31T02:21:05.608Z,12.77
2023-03-31T02:26:15.882Z,17.67
2023-03-31T02:31:23.709Z,17.20
2023-03-31T02:36:25.376Z,20.83
2023-03-31T02:41:26.995Z,20.10
2023-03-31T02:46:28.815Z,14.85
2023-03-31T02:51:32.278Z,18.02
2023-03-31T02:57:02.481Z,12.45
2023-03-31T03:02:13.268Z,17.77
2023-03-31T03:07:17.837Z,11.90
2023-03-31T03:12:27.548Z,12.82
2023-03-31T03:22:30.472Z,12.07
2023-03-31T03:27:32.765Z,12.82
2023-03-31T03:32:34.313Z,16.58
2023-03-31T03:37:35.774Z,16.25
2023-03-31T03:42:38.543Z,14.18
2023-03-31T03:47:40.142Z,11.73
2023-03-31T03:52:41.602Z,14.52
2023-03-31T03:57:43.049Z,15.73
2023-03-31T04:02:44.687Z,12.38
2023-03-31T04:07:46.198Z,13.43
2023-03-31T04:12:47.869Z,15.10
2023-03-31T04:17:51.161Z,16.08
2023-03-31T04:22:52.745Z,14.02
2023-03-31T04:27:57.124Z,12.05
2023-03-31T04:32:59.733Z,14.13
2023-03-31T04:38:02.697Z,10.45
2023-03-31T04:43:04.231Z,14.15
2023-03-31T04:48:06.072Z,13.73
2023-03-31T04:53:07.988Z,13.25
2023-03-31T04:58:09.412Z,15.07
2023-03-31T05:03:10.933Z,13.13
2023-03-31T05:08:12.439Z,15.02
2023-03-31T05:13:13.852Z,11.93
2023-03-31T05:18:15.449Z,14.70
2023-03-31T05:23:16.928Z,13.80
2023-03-31T05:28:18.299Z,13.13
2023-03-31T05:33:19.658Z,11.60
2023-03-31T05:38:21.583Z,10.77
2023-03-31T05:43:23.170Z,8.80
2023-03-31T05:48:24.544Z,11.40
2023-03-31T05:53:26.401Z,11.05
2023-03-31T05:58:28.072Z,10.68
2023-03-31T06:03:29.629Z,9.88
2023-03-31T06:08:31.687Z,11.15
2023-03-31T06:13:33.408Z,9.15
2023-03-31T06:18:35.312Z,11.20
2023-03-31T06:23:37.456Z,7.70
2023-03-31T06:28:39.057Z,12.88
2023-03-31T06:33:41.244Z,8.73
2023-03-31T06:38:42.857Z,12.18
2023-03-31T06:43:44.348Z,9.73
2023-03-31T06:48:46.076Z,9.40
2023-03-31T06:53:47.523Z,9.88
2023-03-31T06:58:49.125Z,11.02
2023-03-31T07:03:50.731Z,14.68
2023-03-31T07:08:52.192Z,13.65
2023-03-31T07:13:53.643Z,12.77
2023-03-31T07:18:59.652Z,11.20
2023-03-31T07:24:01.156Z,10.27
2023-03-31T07:29:02.875Z,7.45
2023-03-31T07:34:04.569Z,10.55
2023-03-31T07:39:06.444Z,8.23
2023-03-31T07:44:07.921Z,8.77
2023-03-31T07:49:10.435Z,9.80
2023-03-31T07:54:11.918Z,11.88
2023-03-31T07:59:13.466Z,7.50
2023-03-31T08:04:14.945Z,8.50
2023-03-31T08:09:16.561Z,9.85
2023-03-31T08:14:27.204Z,11.38
2023-03-31T08:19:37.243Z,9.07
2023-03-31T08:24:41.212Z,7.75
2023-03-31T08:29:42.652Z,9.25
2023-03-31T08:34:45.282Z,9.60
2023-03-31T08:39:46.910Z,8.93
2023-03-31T08:44:55.805Z,9.85
2023-03-31T08:49:59.291Z,9.03
2023-03-31T08:55:04.163Z,10.18
2023-03-31T09:00:07.316Z,12.82
2023-03-31T09:05:17.674Z,9.85
2023-03-31T09:10:35.625Z,10.93
2023-03-31T09:15:40.513Z,9.75
2023-03-31T09:20:44.374Z,13.77
2023-03-31T09:25:46.364Z,12.57
2023-03-31T09:30:51.514Z,11.85
2023-03-31T09:35:53.005Z,10.15
2023-03-31T09:40:54.415Z,13.40
2023-03-31T09:51:02.565Z,12.38
2023-03-31T09:56:06.376Z,11.13
2023-03-31T10:01:10.087Z,10.93
2023-03-31T10:06:14.574Z,15.00
2023-03-31T10:11:16.167Z,16.17
2023-03-31T10:16:29.789Z,12.25
2023-03-31T10:21:36.536Z,14.68
2023-03-31T10:26:38.163Z,13.95
2023-03-31T10:31:40.060Z,11.77
2023-03-31T10:36:45.944Z,11.68
2023-03-31T10:41:53.817Z,13.07
2023-03-31T10:46:55.454Z,16.58
2023-03-31T10:51:58.033Z,16.02
2023-03-31T10:57:01.614Z,12.55
2023-03-31T11:02:15.408Z,14.18
2023-03-31T11:07:17.497Z,15.30
2023-03-31T11:12:26.358Z,13.77
2023-03-31T11:17:48.596Z,13.87
2023-03-31T11:22:59.080Z,17.90
2023-03-31T11:28:06.861Z,14.70
2023-03-31T11:33:10.986Z,12.65
2023-03-31T11:38:22.519Z,14.50
2023-03-31T11:43:26.117Z,19.77
2023-03-31T11:48:36.298Z,16.50
2023-03-31T11:53:39.359Z,14.70
2023-03-31T11:58:49.445Z,17.90
2023-03-31T12:04:06.888Z,12.27
2023-03-31T12:09:13.146Z,12.30
2023-03-31T12:14:29.679Z,17.27
2023-03-31T12:19:33.772Z,11.75
2023-03-31T12:24:36.306Z,10.80
2023-03-31T12:29:46.230Z,12.77
2023-03-31T12:35:09.494Z,15.95
2023-03-31T12:40:27.029Z,14.70
2023-03-31T12:45:29.959Z,14.10
2023-03-31T12:50:34.298Z,13.80
2023-03-31T12:55:49.497Z,12.45
2023-03-31T13:01:10.874Z,10.73
2023-03-31T13:06:27.647Z,11.80
2023-03-31T13:11:39.155Z,10.60
2023-03-31T13:16:40.805Z,8.07
2023-03-31T13:21:55.386Z,10.93
2023-03-31T13:26:59.200Z,9.55
2023-03-31T13:32:04.807Z,7.20
2023-03-31T13:37:24.892Z,7.15
2023-03-31T13:47:53.968Z,7.10
2023-03-31T13:53:04.472Z,10.02
2023-03-31T13:58:35.690Z,9.27
2023-03-31T14:03:39.916Z,10.88
2023-03-31T14:08:43.924Z,7.45
2023-03-31T14:13:58.244Z,11.23
2023-03-31T14:19:07.299Z,8.80
2023-03-31T14:24:08.707Z,9.13
2023-03-31T14:29:15.553Z,9.70
2023-03-31T14:34:35.618Z,9.40
2023-03-31T14:44:38.604Z,11.43
2023-03-31T14:49:40.080Z,15.05
2023-03-31T14:54:42.926Z,14.38
2023-03-31T14:59:44.814Z,13.35
2023-03-31T15:04:48.194Z,13.18
2023-03-31T15:09:51.013Z,8.40
2023-03-31T15:14:54.928Z,7.53
2023-03-31T15:20:00.146Z,8.88
2023-03-31T15:25:01.626Z,8.18
2023-03-31T15:30:05.666Z,8.35
2023-03-31T15:35:21.590Z,8.20
2023-03-31T15:40:25.765Z,11.38
2023-03-31T15:45:45.984Z,11.57
2023-03-31T15:50:47.605Z,9.00
2023-03-31T15:55:51.828Z,9.05
2023-03-31T16:00:54.382Z,11.10
2023-03-31T16:05:56.848Z,6.15
2023-03-31T16:11:01.393Z,6.50
2023-03-31T16:16:07.128Z,10.00
2023-03-31T16:21:09.112Z,10.95
2023-03-31T16:26:11.551Z,8.73
2023-03-31T16:31:28.107Z,7.70
2023-03-31T16:36:29.592Z,9.50
2023-03-31T16:41:31.900Z,7.22
2023-03-31T16:46:33.483Z,7.47
2023-03-31T16:51:35.084Z,10.05
2023-03-31T16:56:36.724Z,9.65
2023-03-31T17:01:38.304Z,8.75
2023-03-31T17:06:39.873Z,9.95
2023-03-31T17:11:41.700Z,8.52
2023-03-31T17:16:48.586Z,7.63
2023-03-31T17:21:51.144Z,7.32
2023-03-31T17:26:52.575Z,5.72
2023-03-31T17:31:54.351Z,8.18
2023-03-31T17:36:57.044Z,8.70
2023-03-31T17:41:58.708Z,8.82
2023-03-31T17:47:00.205Z,8.80
2023-03-31T17:52:02.172Z,7.50
2023-03-31T17:57:03.796Z,7.82
2023-03-31T18:02:05.508Z,9.55
2023-03-31T18:07:07.334Z,9.10
2023-03-31T18:12:11.640Z,9.45
2023-03-31T18:17:15.049Z,8.95
2023-03-31T18:22:16.478Z,7.55
2023-03-31T18:27:18.428Z,10.15
2023-03-31T18:32:20.269Z,8.98
2023-03-31T18:37:22.376Z,9.82
2023-03-31T18:42:25.766Z,7.97
2023-03-31T18:47:27.713Z,8.30
2023-03-31T18:52:29.411Z,9.68
2023-03-31T18:57:31.040Z,9.80
2023-03-31T19:02:32.628Z,8.80
2023-03-31T19:07:34.213Z,9.55
2023-03-31T19:12:35.728Z,8.85
2023-03-31T19:17:37.213Z,9.50
2023-03-31T19:22:38.644Z,8.50
2023-03-31T19:27:40.417Z,10.63
2023-03-31T19:32:42.010Z,10.45
2023-03-31T19:37:43.658Z,10.05
2023-03-31T19:42:45.203Z,10.07
2023-03-31T19:47:46.718Z,10.57
2023-03-31T19:52:49.968Z,9.77
2023-03-31T19:57:51.761Z,10.02
2023-03-31T20:02:53.553Z,10.05
2023-03-31T20:07:55.193Z,9.93
2023-03-31T20:12:56.838Z,10.77
2023-03-31T20:17:58.332Z,9.85
2023-03-31T20:22:59.861Z,10.60
2023-03-31T20:28:01.676Z,12.10
2023-03-31T20:33:03.127Z,12.70
2023-03-31T20:38:05.034Z,12.90
2023-03-31T20:43:07.343Z,13.95
2023-03-31T20:48:09.732Z,13.45
2023-03-31T20:53:11.190Z,14.10
2023-03-31T20:58:12.552Z,11.02
2023-03-31T21:03:14.284Z,13.60
2023-03-31T21:08:15.755Z,14.68
2023-03-31T21:13:17.897Z,15.02
2023-03-31T21:18:19.263Z,12.80
2023-03-31T21:23:21.412Z,12.65
2023-03-31T21:28:25.445Z,10.85
2023-03-31T21:33:26.892Z,12.15
2023-03-31T21:38:28.633Z,12.38
2023-03-31T21:43:30.151Z,12.02
2023-03-31T21:48:31.821Z,11.23
2023-03-31T21:53:33.224Z,10.90
2023-03-31T21:58:34.700Z,10.35
2023-03-31T22:03:36.804Z,10.80
2023-03-31T22:08:38.959Z,10.35
2023-03-31T22:13:40.953Z,12.23
2023-03-31T22:18:42.831Z,11.10
2023-03-31T22:23:44.396Z,11.85
2023-03-31T22:28:45.883Z,12.38
2023-03-31T22:33:47.648Z,12.43
2023-03-31T22:38:50.940Z,13.38
2023-03-31T22:43:52.261Z,11.77
2023-03-31T22:48:53.666Z,12.55
2023-03-31T22:53:55.625Z,13.65
2023-03-31T22:58:57.705Z,14.35
2023-03-31T23:04:00.599Z,12.65
2023-03-31T23:09:02.019Z,12.88
2023-03-31T23:14:06.150Z,12.23
2023-03-31T23:19:07.535Z,12.52
2023-03-31T23:24:11.706Z,12.82
2023-03-31T23:29:13.220Z,14.57
2023-03-31T23:34:14.743Z,13.80
2023-03-31T23:39:16.138Z,14.10
2023-03-31T23:44:17.688Z,19.73
2023-03-31T23:49:20.856Z,20.33
2023-03-31T23:54:22.462Z,18.48
2023-03-31T23:59:23.855Z,18.00
